Time;durP1;ratioP1;P1;durP2;ratioP2;P2;SDS_P1;SDS_P2;PMS_P1;PMS_P2;Temp;Humidity;BMP_temperature;BMP_pressure;BME280_temperature;BME280_humidity;BME280_pressure;Samples;Min_cycle;Max_cycle;Signal;HPM_P1;HPM_P2
2021/11/19 00:00:57;;;;;;;6.78;3.50;;;;;;;-145.06;0.00;60892.56;4911410;28;20028;-87
2021/11/19 00:03:36;;;;;;;8.85;2.95;;;;;;;-145.06;0.00;60892.56;4912072;28;20056;-87
2021/11/19 00:06:15;;;;;;;5.28;2.92;;;;;;;-145.06;0.00;60892.56;4896070;28;20028;-89
2021/11/19 00:08:55;;;;;;;;;;;;;;;-145.06;0.00;60892.56;4910476;28;20028;-87
2021/11/19 00:11:38;;;;;;;4.47;2.80;;;;;;;-145.06;0.00;60892.56;4922723;28;19983;-88
2021/11/19 00:14:20;;;;;;;5.00;3.10;;;;;;;-145.06;0.00;60892.56;4916788;28;20029;-87
2021/11/19 00:17:05;;;;;;;6.85;3.28;;;;;;;-145.06;0.00;60892.56;4896091;28;20032;-88
2021/11/19 00:19:45;;;;;;;4.97;2.95;;;;;;;-145.06;0.00;60892.56;4900207;28;20028;-87
2021/11/19 00:22:24;;;;;;;6.28;3.72;;;;;;;-145.06;0.00;60892.56;4904725;28;20036;-88
2021/11/19 00:25:05;;;;;;;4.80;3.53;;;;;;;-145.06;0.00;60892.56;4906495;28;20036;-87
2021/11/19 00:27:44;;;;;;;6.43;3.40;;;;;;;-145.06;0.00;60892.56;4907432;28;20028;-88
2021/11/19 00:30:25;;;;;;;7.47;4.43;;;;;;;-145.06;0.00;60892.56;4909477;28;21517;-87
2021/11/19 00:33:06;;;;;;;6.88;3.80;;;;;;;-145.06;0.00;60892.56;4899453;28;20266;-88
2021/11/19 00:35:46;;;;;;;8.02;3.90;;;;;;;-145.06;0.00;60892.56;4896340;28;20028;-89
2021/11/19 00:38:27;;;;;;;6.88;3.53;;;;;;;-145.06;0.00;60892.56;4903872;28;20028;-89
2021/11/19 00:41:09;;;;;;;4.65;3.22;;;;;;;-145.06;0.00;60892.56;4916826;28;20039;-88
2021/11/19 00:43:48;;;;;;;6.78;3.97;;;;;;;-145.06;0.00;60892.56;4898495;28;20731;-88
2021/11/19 00:46:27;;;;;;;5.45;3.40;;;;;;;-145.06;0.00;60892.56;4898369;28;20024;-87
2021/11/19 00:49:07;;;;;;;4.30;3.00;;;;;;;-145.06;0.00;60892.56;4895731;28;20033;-88
2021/11/19 00:51:49;;;;;;;5.65;3.08;;;;;;;-145.06;0.00;60892.56;4915736;28;20031;-88
2021/11/19 00:54:28;;;;;;;5.78;3.40;;;;;;;-145.06;0.00;60892.56;4901406;28;20043;-89
2021/11/19 00:57:12;;;;;;;5.53;3.60;;;;;;;-145.06;0.00;60892.56;4915138;28;20355;-88
2021/11/19 00:59:51;;;;;;;4.72;3.20;;;;;;;-145.06;0.00;60892.56;4911798;28;20649;-88
2021/11/19 01:02:31;;;;;;;5.03;3.10;;;;;;;-145.06;0.00;60892.56;4913848;28;20039;-88
2021/11/19 01:05:11;;;;;;;6.03;3.33;;;;;;;-145.06;0.00;60892.56;4912928;28;20043;-87
2021/11/19 01:07:50;;;;;;;6.57;3.40;;;;;;;-145.06;0.00;60892.56;4902107;28;20032;-88
2021/11/19 01:10:33;;;;;;;4.82;3.50;;;;;;;-145.06;0.00;60892.56;4905073;28;20035;-89
2021/11/19 01:13:13;;;;;;;8.13;3.50;;;;;;;-145.06;0.00;60892.56;4911605;28;20036;-88
2021/11/19 01:15:56;;;;;;;6.18;3.60;;;;;;;-145.06;0.00;60892.56;4905554;28;20032;-88
2021/11/19 01:18:42;;;;;;;4.90;3.20;;;;;;;-145.06;0.00;60892.56;4907962;28;20536;-88
2021/11/19 01:21:26;;;;;;;4.38;2.63;;;;;;;-145.06;0.00;60892.56;4909085;28;20032;-88
2021/11/19 01:24:06;;;;;;;4.43;3.10;;;;;;;-145.06;0.00;60892.56;4913873;28;20379;-89
2021/11/19 01:26:47;;;;;;;4.80;2.72;;;;;;;-145.06;0.00;60892.56;4914390;28;20106;-87
2021/11/19 01:29:26;;;;;;;;;;;;;;;-145.06;0.00;60892.56;4904703;28;20016;-89
2021/11/19 01:32:09;;;;;;;6.18;4.00;;;;;;;-145.06;0.00;60892.56;4918003;28;19912;-89
2021/11/19 01:34:48;;;;;;;5.13;3.53;;;;;;;-145.06;0.00;60892.56;4905588;28;20032;-89
2021/11/19 01:37:27;;;;;;;4.93;3.38;;;;;;;-145.06;0.00;60892.56;4903738;28;20032;-88
2021/11/19 01:40:10;;;;;;;6.20;3.75;;;;;;;-145.06;0.00;60892.56;4900034;28;20036;-88
2021/11/19 01:42:52;;;;;;;4.93;3.33;;;;;;;-145.06;0.00;60892.56;4912353;28;20058;-88
2021/11/19 01:45:36;;;;;;;8.75;3.35;;;;;;;-145.06;0.00;60892.56;4895875;28;20032;-89
2021/11/19 01:48:20;;;;;;;4.68;3.22;;;;;;;-145.06;0.00;60892.56;4903791;28;20032;-88
2021/11/19 01:51:11;;;;;;;5.28;3.67;;;;;;;-145.06;0.00;60892.56;4915722;28;20031;-88
2021/11/19 01:54:03;;;;;;;5.82;3.42;;;;;;;-145.06;0.00;60892.56;4901754;28;20028;-88
2021/11/19 01:56:54;;;;;;;5.75;3.50;;;;;;;-145.06;0.00;60892.56;4895369;28;20064;-88
2021/11/19 01:59:42;;;;;;;4.45;2.90;;;;;;;-145.06;0.00;60892.56;4903383;28;20489;-88
2021/11/19 02:02:34;;;;;;;3.80;2.83;;;;;;;10.68;0.00;60892.56;4902787;28;20032;-88
2021/11/19 02:05:16;;;;;;;4.63;3.20;;;;;;;-145.06;0.00;60892.56;4906882;28;20060;-88
2021/11/19 02:08:01;;;;;;;6.63;3.53;;;;;;;-145.06;0.00;60892.56;4893801;28;20060;-88
2021/11/19 02:11:13;;;;;;;5.20;3.35;;;;;;;-145.06;0.00;60892.56;4905640;28;20067;-88
2021/11/19 02:14:02;;;;;;;3.78;2.58;;;;;;;-145.06;0.00;60892.56;4906980;28;20032;-88
2021/11/19 02:16:48;;;;;;;4.75;3.28;;;;;;;-145.06;0.00;60892.56;4908148;28;20024;-88
2021/11/19 02:19:39;;;;;;;5.30;3.22;;;;;;;-145.06;0.00;60892.56;4914473;28;20028;-88
2021/11/19 02:22:25;;;;;;;5.25;3.00;;;;;;;-145.06;0.00;60892.56;4908387;28;20021;-88
2021/11/19 02:25:09;;;;;;;5.97;3.55;;;;;;;-145.06;0.00;60892.56;4907586;28;20021;-88
2021/11/19 02:27:53;;;;;;;3.95;3.05;;;;;;;-145.06;0.00;60892.56;4911940;28;20067;-89
2021/11/19 02:30:54;;;;;;;4.50;3.17;;;;;;;-145.06;0.00;60892.56;4909924;28;20116;-88
2021/11/19 02:33:34;;;;;;;3.85;2.80;;;;;;;-145.06;0.00;60892.56;4905039;28;20036;-87
2021/11/19 02:36:18;;;;;;;3.88;2.65;;;;;;;-145.06;0.00;60892.56;4905781;28;20036;-88
2021/11/19 02:39:09;;;;;;;4.10;2.53;;;;;;;-145.06;0.00;60892.56;4910751;28;20033;-89
2021/11/19 02:41:53;;;;;;;5.32;3.20;;;;;;;-145.06;0.00;60892.56;4910073;28;20689;-87
2021/11/19 02:44:34;;;;;;;4.00;2.72;;;;;;;-145.06;0.00;60892.56;4906104;28;20894;-88
2021/11/19 02:47:19;;;;;;;5.88;2.75;;;;;;;-145.06;0.00;60892.56;4910939;28;20029;-88
2021/11/19 02:49:59;;;;;;;5.47;3.05;;;;;;;-145.06;0.00;60892.56;4922623;28;20370;-88
2021/11/19 02:52:41;;;;;;;3.63;2.50;;;;;;;-145.06;0.00;60892.56;4925778;28;20492;-88
2021/11/19 02:55:24;;;;;;;3.55;2.35;;;;;;;-145.06;0.00;60892.56;4915153;28;20036;-88
2021/11/19 02:58:06;;;;;;;2.88;2.05;;;;;;;-145.06;0.00;60892.56;4909319;28;20043;-88
2021/11/19 03:01:00;;;;;;;3.45;2.30;;;;;;;-145.06;0.00;60892.56;4925949;28;20481;-88
2021/11/19 03:03:43;;;;;;;4.25;2.80;;;;;;;-145.06;0.00;60892.56;4912416;28;20027;-88
2021/11/19 03:06:22;;;;;;;3.28;2.78;;;;;;;-145.06;0.00;60892.56;4912188;28;20063;-88
2021/11/19 03:09:02;;;;;;;4.33;2.53;;;;;;;-145.06;0.00;60892.56;4897898;28;20064;-88
2021/11/19 03:11:42;;;;;;;3.65;2.80;;;;;;;-145.06;0.00;60892.56;4920261;28;20052;-87
2021/11/19 03:14:22;;;;;;;3.92;2.83;;;;;;;-145.06;0.00;60892.56;4924860;28;20493;-89
2021/11/19 03:17:02;;;;;;;;;;;;;;;-145.06;0.00;60892.56;4918581;28;20041;-88
2021/11/19 03:19:43;;;;;;;3.50;2.35;;;;;;;-145.06;0.00;60892.56;4909865;28;19938;-88
2021/11/19 03:22:25;;;;;;;5.18;2.40;;;;;;;-145.06;0.00;60892.56;4910317;28;20024;-87
2021/11/19 03:25:06;;;;;;;4.50;2.28;;;;;;;-145.06;0.00;60892.56;4904625;28;20028;-88
2021/11/19 03:27:46;;;;;;;3.47;2.42;;;;;;;-145.06;0.00;60892.56;4903915;28;20032;-88
2021/11/19 03:30:27;;;;;;;2.88;2.30;;;;;;;187.52;0.00;60892.56;4911968;28;20465;-89
2021/11/19 03:33:08;;;;;;;2.90;2.17;;;;;;;-145.06;0.00;60892.56;4912528;28;20111;-87
2021/11/19 03:35:49;;;;;;;3.53;2.13;;;;;;;-145.06;0.00;60892.56;4907429;28;20020;-88
2021/11/19 03:38:30;;;;;;;2.63;1.90;;;;;;;-145.06;0.00;60892.56;4904811;28;20111;-87
2021/11/19 03:41:11;;;;;;;2.58;1.95;;;;;;;-145.06;0.00;60892.56;4914622;28;20032;-88
2021/11/19 03:44:01;;;;;;;2.53;1.80;;;;;;;-145.06;0.00;60892.56;4900133;28;20104;-87
2021/11/19 03:46:45;;;;;;;3.50;2.05;;;;;;;-145.06;0.00;60892.56;4911509;28;20024;-87
2021/11/19 03:49:24;;;;;;;2.30;1.80;;;;;;;-145.06;0.00;60892.56;4907769;28;20470;-88
2021/11/19 03:52:17;;;;;;;2.65;2.00;;;;;;;-145.06;0.00;60892.56;4897775;28;20367;-88
2021/11/19 03:54:59;;;;;;;2.50;1.85;;;;;;;-145.06;0.00;60892.56;4900996;28;20037;-88
2021/11/19 03:57:40;;;;;;;2.17;1.80;;;;;;;-145.06;0.00;60892.56;4911886;28;20975;-87
2021/11/19 04:00:23;;;;;;;2.47;2.28;;;;;;;-145.06;0.00;60892.56;4919826;28;20056;-88
2021/11/19 04:03:04;;;;;;;2.50;1.95;;;;;;;-145.06;0.00;60892.56;4913740;28;20036;-88
2021/11/19 04:05:45;;;;;;;4.55;2.67;;;;;;;-145.06;0.00;60892.56;4901511;28;20028;-88
2021/11/19 04:08:25;;;;;;;2.60;2.10;;;;;;;-145.06;0.00;60892.56;4898326;28;20028;-87
2021/11/19 04:11:07;;;;;;;2.38;2.08;;;;;;;187.52;0.00;60892.56;4923797;28;20106;-88
2021/11/19 04:13:47;;;;;;;2.45;2.08;;;;;;;-145.06;0.00;60892.56;4917930;28;20028;-88
2021/11/19 04:16:36;;;;;;;3.33;2.10;;;;;;;-145.06;0.00;60892.56;4913057;28;20032;-88
2021/11/19 04:19:19;;;;;;;3.63;2.22;;;;;;;-145.06;0.00;60892.56;4911529;28;20040;-88
2021/11/19 04:22:05;;;;;;;2.53;2.00;;;;;;;-145.06;0.00;60892.56;4907826;28;20048;-87
2021/11/19 04:24:51;;;;;;;3.08;2.20;;;;;;;-145.06;0.00;60892.56;4902203;28;20029;-87
2021/11/19 04:27:30;;;;;;;3.03;2.15;;;;;;;-145.06;0.00;60892.56;4904643;28;20050;-87
2021/11/19 04:30:14;;;;;;;3.25;2.30;;;;;;;-145.06;0.00;60892.56;4918301;28;20044;-87
2021/11/19 04:32:56;;;;;;;2.80;2.38;;;;;;;-145.06;0.00;60892.56;4925485;28;20028;-88
2021/11/19 04:35:36;;;;;;;2.45;2.05;;;;;;;-145.06;0.00;60892.56;4899964;28;20023;-87
2021/11/19 04:38:15;;;;;;;2.50;2.00;;;;;;;-145.06;0.00;60892.56;4895346;28;20032;-88
2021/11/19 04:40:55;;;;;;;2.72;2.20;;;;;;;-145.06;0.00;60892.56;4904529;28;20423;-87
2021/11/19 04:43:35;;;;;;;;;;;;;;;-145.06;0.00;60892.56;4902598;28;20068;-88
2021/11/19 04:46:15;;;;;;;2.92;2.30;;;;;;;-145.06;0.00;60892.56;4894803;28;20259;-88
2021/11/19 04:48:54;;;;;;;3.90;2.38;;;;;;;-145.06;0.00;60892.56;4901774;28;20028;-88
2021/11/19 04:51:35;;;;;;;2.87;2.10;;;;;;;-145.06;0.00;60892.56;4909470;28;20469;-88
2021/11/19 04:54:16;;;;;;;3.15;2.55;;;;;;;-145.06;0.00;60892.56;4911419;28;20028;-88
2021/11/19 04:56:56;;;;;;;2.50;2.20;;;;;;;-145.06;0.00;60892.56;4898303;28;20036;-87
2021/11/19 04:59:36;;;;;;;2.33;1.95;;;;;;;-145.06;0.00;60892.56;4917802;28;20036;-88
2021/11/19 05:02:20;;;;;;;2.72;2.10;;;;;;;-145.06;0.00;60892.56;4908189;28;20478;-88
2021/11/19 05:04:59;;;;;;;2.72;1.90;;;;;;;-145.06;0.00;60892.56;4908331;28;20032;-88
2021/11/19 05:07:39;;;;;;;3.72;2.00;;;;;;;-145.06;0.00;60892.56;4895638;28;20035;-88
2021/11/19 05:10:18;;;;;;;3.38;2.25;;;;;;;-145.06;0.00;60892.56;4912787;28;20607;-88
2021/11/19 05:13:00;;;;;;;3.45;2.15;;;;;;;-145.06;0.00;60892.56;4910637;28;20032;-87
2021/11/19 05:15:41;;;;;;;2.55;2.03;;;;;;;-145.06;0.00;60892.56;4895608;28;20036;-87
2021/11/19 05:18:22;;;;;;;3.28;2.50;;;;;;;-145.06;0.00;60892.56;4895669;28;20032;-87
2021/11/19 05:21:03;;;;;;;2.70;2.05;;;;;;;-145.06;0.00;60892.56;4910372;28;20036;-88
2021/11/19 05:23:42;;;;;;;3.20;2.50;;;;;;;-145.06;0.00;60892.56;4909886;28;20027;-87
2021/11/19 05:26:22;;;;;;;2.65;1.92;;;;;;;-145.06;0.00;60892.56;4908185;28;20477;-87
2021/11/19 05:29:02;;;;;;;1.98;1.60;;;;;;;-145.06;0.00;60892.56;4913623;28;20378;-88
2021/11/19 05:31:42;;;;;;;2.45;1.70;;;;;;;-145.06;0.00;60892.56;4898229;28;20031;-86
2021/11/19 05:34:22;;;;;;;2.35;1.75;;;;;;;-145.06;0.00;60892.56;4903364;28;20028;-88
2021/11/19 05:37:02;;;;;;;2.35;1.75;;;;;;;-145.06;0.00;60892.56;4907096;28;20032;-87
2021/11/19 05:39:41;;;;;;;1.80;1.48;;;;;;;-145.06;0.00;60892.56;4908140;28;20115;-88
2021/11/19 05:42:20;;;;;;;2.72;1.40;;;;;;;-145.06;0.00;60892.56;4909796;28;20103;-88
2021/11/19 05:45:00;;;;;;;2.27;1.80;;;;;;;-145.06;0.00;60892.56;4903791;28;20249;-88
2021/11/19 05:47:38;;;;;;;2.13;1.83;;;;;;;-145.06;0.00;60892.56;4898930;28;20033;-87
2021/11/19 05:50:20;;;;;;;2.40;1.92;;;;;;;-145.06;0.00;60892.56;4903755;28;20366;-87
2021/11/19 05:53:01;;;;;;;2.45;1.63;;;;;;;-145.06;0.00;60892.56;4900675;28;20474;-88
2021/11/19 05:55:43;;;;;;;2.63;1.80;;;;;;;-145.06;0.00;60892.56;4903780;28;20036;-87
2021/11/19 05:58:22;;;;;;;2.35;1.80;;;;;;;-145.06;0.00;60892.56;4906910;28;20032;-88
2021/11/19 06:01:05;;;;;;;1.90;1.58;;;;;;;-145.06;0.00;60892.56;4907779;28;20035;-88
2021/11/19 06:03:46;;;;;;;1.73;1.48;;;;;;;-145.06;0.00;60892.56;4902204;28;20040;-87
2021/11/19 06:06:25;;;;;;;1.98;1.67;;;;;;;-145.06;0.00;60892.56;4899378;28;20839;-87
2021/11/19 06:09:06;;;;;;;1.67;1.37;;;;;;;-145.06;0.00;60892.56;4909662;28;20493;-88
2021/11/19 06:11:49;;;;;;;1.20;1.10;;;;;;;-145.06;0.00;60892.56;4904803;28;20353;-87
2021/11/19 06:14:35;;;;;;;2.20;1.42;;;;;;;-145.06;0.00;60892.56;4906806;28;20103;-88
2021/11/19 06:17:18;;;;;;;1.90;1.50;;;;;;;-145.06;0.00;60892.56;4911357;28;20366;-88
2021/11/19 06:20:01;;;;;;;1.90;1.50;;;;;;;-145.06;0.00;60892.56;4906880;28;20616;-88
2021/11/19 06:22:44;;;;;;;1.50;1.27;;;;;;;-145.06;0.00;60892.56;4905400;28;20071;-88
2021/11/19 06:25:26;;;;;;;2.03;1.70;;;;;;;-145.06;0.00;60892.56;4908287;28;20480;-87
2021/11/19 06:28:08;;;;;;;2.03;1.58;;;;;;;-145.06;0.00;60892.56;4904231;28;20028;-87
2021/11/19 06:30:48;;;;;;;2.25;2.03;;;;;;;-145.06;0.00;60892.56;4909629;28;20028;-88
2021/11/19 06:33:27;;;;;;;1.83;1.60;;;;;;;-145.06;0.00;60892.56;4909851;28;20051;-88
2021/11/19 06:36:08;;;;;;;2.08;1.80;;;;;;;-145.06;0.00;60892.56;4903496;28;20032;-88
2021/11/19 06:38:48;;;;;;;1.88;1.67;;;;;;;-145.06;0.00;60892.56;4912100;28;20056;-88
2021/11/19 06:41:28;;;;;;;2.50;2.05;;;;;;;-145.06;0.00;60892.56;4920389;28;20039;-87
2021/11/19 06:44:08;;;;;;;2.33;1.83;;;;;;;-145.06;0.00;60892.56;4918378;28;20036;-88
2021/11/19 06:46:47;;;;;;;2.58;1.80;;;;;;;-145.06;0.00;60892.56;4901256;28;20024;-87
2021/11/19 06:49:26;;;;;;;2.08;1.67;;;;;;;-145.06;0.00;60892.56;4904715;28;20032;-87
2021/11/19 06:52:06;;;;;;;2.27;1.87;;;;;;;15.88;0.00;60892.56;4910447;28;20029;-87
2021/11/19 06:54:46;;;;;;;1.88;1.60;;;;;;;-145.06;0.00;60892.56;4922635;28;20028;-87
2021/11/19 06:57:25;;;;;;;2.63;1.98;;;;;;;-145.06;0.00;60892.56;4902989;28;20059;-88
2021/11/19 07:00:12;;;;;;;2.85;2.33;;;;;;;-145.06;0.00;60892.56;4896066;28;20036;-88
2021/11/19 07:02:51;;;;;;;1.85;1.65;;;;;;;-145.06;0.00;60892.56;4909397;28;20028;-87
2021/11/19 07:05:31;;;;;;;2.33;1.98;;;;;;;-145.06;0.00;60892.56;4921688;28;20031;-88
2021/11/19 07:08:11;;;;;;;1.83;1.63;;;;;;;-145.06;0.00;60892.56;4937212;28;20031;-88
2021/11/19 07:10:57;;;;;;;2.38;1.83;;;;;;;-145.06;0.00;60892.56;4923745;28;20274;-88
2021/11/19 07:13:36;;;;;;;1.48;1.38;;;;;;;-145.06;0.00;60892.56;4914619;28;20028;-88
2021/11/19 07:16:17;;;;;;;;;;;;;;;-145.06;0.00;60892.56;4908005;28;20493;-88
2021/11/19 07:18:57;;;;;;;2.13;1.60;;;;;;;-145.06;0.00;60892.56;4916285;28;19915;-88
2021/11/19 07:21:37;;;;;;;2.08;1.30;;;;;;;-145.06;0.00;60892.56;4915956;28;20023;-88
2021/11/19 07:24:16;;;;;;;2.03;1.60;;;;;;;-145.06;0.00;60892.56;4910021;28;20112;-88
2021/11/19 07:26:55;;;;;;;2.17;1.77;;;;;;;-145.06;0.00;60892.56;4902735;28;20115;-88
2021/11/19 07:29:34;;;;;;;2.33;1.80;;;;;;;-145.06;0.00;60892.56;4914439;28;20020;-87
2021/11/19 07:32:14;;;;;;;2.00;1.70;;;;;;;-145.06;0.00;60892.56;4913736;28;20028;-87
2021/11/19 07:34:53;;;;;;;2.10;1.90;;;;;;;-145.06;0.00;60892.56;4920865;28;20023;-89
2021/11/19 07:37:33;;;;;;;2.15;1.67;;;;;;;-145.06;0.00;60892.56;4928512;28;20059;-87
2021/11/19 07:40:14;;;;;;;1.67;1.52;;;;;;;-145.06;0.00;60892.56;4908997;28;20465;-88
2021/11/19 07:42:53;;;;;;;3.92;1.98;;;;;;;-145.06;0.00;60892.56;4918700;28;20031;-88
2021/11/19 07:45:37;;;;;;;2.40;1.67;;;;;;;-145.06;0.00;60892.56;4908980;28;20028;-88
2021/11/19 07:48:23;;;;;;;1.65;1.42;;;;;;;-145.06;0.00;60892.56;4896945;28;20032;-88
2021/11/19 07:51:07;;;;;;;1.70;1.40;;;;;;;-145.06;0.00;60892.56;4914277;28;20032;-88
2021/11/19 07:53:47;;;;;;;1.55;1.35;;;;;;;-145.06;0.00;60892.56;4912894;28;20052;-87
2021/11/19 07:56:32;;;;;;;2.20;1.60;;;;;;;-145.06;0.00;60892.56;4916107;28;20028;-88
2021/11/19 07:59:20;;;;;;;2.22;1.63;;;;;;;-145.06;0.00;60892.56;4914861;28;20036;-87
2021/11/19 08:02:00;;;;;;;1.60;1.45;;;;;;;-145.06;0.00;60892.56;4917940;28;20099;-88
2021/11/19 08:04:39;;;;;;;2.15;1.50;;;;;;;-145.06;0.00;60892.56;4908170;28;20028;-88
2021/11/19 08:07:17;;;;;;;2.30;1.70;;;;;;;-145.06;0.00;60892.56;4935320;28;20059;-87
2021/11/19 08:09:58;;;;;;;2.00;1.73;;;;;;;-145.06;0.00;60892.56;4923341;28;20314;-87
2021/11/19 08:12:37;;;;;;;2.15;1.80;;;;;;;-145.06;0.00;60892.56;4914624;28;20473;-87
2021/11/19 08:15:19;;;;;;;2.17;1.88;;;;;;;-145.06;0.00;60892.56;4916447;28;20032;-88
2021/11/19 08:18:00;;;;;;;1.90;1.42;;;;;;;-145.06;0.00;60892.56;4916714;28;20031;-88
2021/11/19 08:20:41;;;;;;;1.60;1.40;;;;;;;-145.06;0.00;60892.56;4912316;28;20024;-87
2021/11/19 08:23:42;;;;;;;1.60;1.50;;;;;;;-145.06;0.00;60892.56;4925035;28;20035;-87
2021/11/19 08:26:44;;;;;;;1.63;1.40;;;;;;;-145.06;0.00;60892.56;4896958;28;20044;-88
2021/11/19 08:29:29;;;;;;;1.65;1.45;;;;;;;-145.06;0.00;60892.56;4922115;28;20036;-88
2021/11/19 08:32:09;;;;;;;2.05;1.52;;;;;;;-145.06;0.00;60892.56;4902716;28;20028;-87
2021/11/19 08:34:48;;;;;;;1.60;1.40;;;;;;;-145.06;0.00;60892.56;4927264;28;20020;-88
2021/11/19 08:37:28;;;;;;;1.80;1.60;;;;;;;21.08;0.00;60892.56;4922501;28;20032;-87
2021/11/19 08:40:11;;;;;;;1.88;1.50;;;;;;;-145.06;0.00;60892.56;4900883;28;20032;-87
2021/11/19 08:42:50;;;;;;;2.70;1.88;;;;;;;-145.06;0.00;60892.56;4918144;28;20039;-88
2021/11/19 08:45:31;;;;;;;1.95;1.67;;;;;;;-145.06;0.00;60892.56;4913339;28;20115;-88
2021/11/19 08:48:10;;;;;;;2.22;1.77;;;;;;;-145.06;0.00;60892.56;4900161;28;20033;-88
2021/11/19 08:50:50;;;;;;;2.40;2.20;;;;;;;-145.06;0.00;60892.56;4901490;28;20020;-88
2021/11/19 08:53:29;;;;;;;;;;;;;;;-145.06;0.00;60892.56;4914651;28;20063;-88
2021/11/19 08:56:08;;;;;;;1.88;1.65;;;;;;;-145.06;0.00;60892.56;4911606;28;19959;-88
2021/11/19 08:58:48;;;;;;;1.60;1.30;;;;;;;-145.06;0.00;60892.56;4902271;28;20029;-88
2021/11/19 09:01:27;;;;;;;1.90;1.80;;;;;;;-145.06;0.00;60892.56;4921776;28;20028;-88
2021/11/19 09:04:06;;;;;;;2.33;1.75;;;;;;;-145.06;0.00;60892.56;4932428;28;20499;-87
2021/11/19 09:06:45;;;;;;;2.10;1.73;;;;;;;-145.06;0.00;60892.56;4923959;28;20024;-87
2021/11/19 09:09:25;;;;;;;1.87;1.50;;;;;;;-145.06;0.00;60892.56;4911153;28;20040;-88
2021/11/19 09:12:04;;;;;;;1.70;1.50;;;;;;;-145.06;0.00;60892.56;4898876;28;20104;-87
2021/11/19 09:14:44;;;;;;;1.95;1.70;;;;;;;-145.06;0.00;60892.56;4919116;28;20024;-88
2021/11/19 09:17:24;;;;;;;1.42;1.33;;;;;;;-145.06;0.00;60892.56;4914320;28;20024;-89
2021/11/19 09:20:14;;;;;;;1.50;1.33;;;;;;;-145.06;0.00;60892.56;4920605;28;20031;-88
2021/11/19 09:23:12;;;;;;;1.60;1.20;;;;;;;-145.06;0.00;60892.56;4914972;28;20020;-88
2021/11/19 09:25:55;;;;;;;1.63;1.40;;;;;;;-145.06;0.00;60892.56;4913794;28;20024;-88
2021/11/19 09:28:37;;;;;;;1.10;1.00;;;;;;;-145.06;0.00;60892.56;4918184;28;20032;-88
2021/11/19 09:31:19;;;;;;;1.48;1.23;;;;;;;13.28;0.00;60892.56;4914167;28;20028;-88
2021/11/19 09:33:58;;;;;;;1.23;1.13;;;;;;;-145.06;0.00;60892.56;4912724;28;20098;-88
2021/11/19 09:36:38;;;;;;;1.23;1.10;;;;;;;11.37;0.00;60892.56;4905060;28;20067;-88
2021/11/19 09:39:22;;;;;;;1.08;0.98;;;;;;;-145.06;0.00;60892.56;4896246;28;20032;-88
2021/11/19 09:42:29;;;;;;;1.10;1.00;;;;;;;-145.06;0.00;60892.56;4912583;28;20033;-89
2021/11/19 09:45:36;;;;;;;1.48;1.00;;;;;;;-145.06;0.00;60892.56;4900758;28;20064;-87
2021/11/19 09:48:58;;;;;;;1.10;1.00;;;;;;;-145.06;0.00;60892.56;4913995;28;20130;-88
2021/11/19 09:52:08;;;;;;;1.25;1.15;;;;;;;-145.06;0.00;60892.56;4908543;28;20012;-86
2021/11/19 09:55:34;;;;;;;1.20;1.10;;;;;;;-145.06;0.00;60892.56;4907672;28;20028;-88
2021/11/19 09:58:29;;;;;;;1.55;1.27;;;;;;;-145.06;0.00;60892.56;4915406;28;20481;-88
2021/11/19 10:01:36;;;;;;;1.40;1.30;;;;;;;-145.06;0.00;60892.56;4919928;28;20032;-88
2021/11/19 10:04:53;;;;;;;1.30;1.10;;;;;;;-145.06;0.00;60892.56;4909337;28;20012;-88
2021/11/19 10:08:10;;;;;;;1.50;1.20;;;;;;;-145.06;0.00;60892.56;4927630;28;20511;-88
2021/11/19 10:11:11;;;;;;;1.25;1.15;;;;;;;-145.06;0.00;60892.56;4921632;28;20110;-88
2021/11/19 10:14:10;;;;;;;1.33;1.23;;;;;;;-145.06;0.00;60892.56;4923028;28;20024;-89
2021/11/19 10:17:03;;;;;;;1.40;1.30;;;;;;;-145.06;0.00;60892.56;4913670;28;20027;-87
2021/11/19 10:19:57;;;;;;;1.40;1.20;;;;;;;-145.06;0.00;60892.56;4906932;28;20906;-88
2021/11/19 10:23:00;;;;;;;1.83;1.10;;;;;;;-145.06;0.00;60892.56;4907431;28;20031;-89
2021/11/19 10:25:46;;;;;;;1.90;1.40;;;;;;;-145.06;0.00;60892.56;4916484;28;20019;-87
2021/11/19 10:28:38;;;;;;;1.75;1.40;;;;;;;11.56;0.00;60892.56;4925083;28;20028;-89
2021/11/19 10:31:23;;;;;;;2.05;1.50;;;;;;;-145.06;0.00;60892.56;4923153;28;20017;-88
2021/11/19 10:34:05;;;;;;;1.40;1.30;;;;;;;187.52;0.00;60892.56;4910426;28;20366;-88
2021/11/19 10:36:59;;;;;;;1.35;1.20;;;;;;;-145.06;0.00;60892.56;4898039;28;20028;-87
2021/11/19 10:39:47;;;;;;;2.00;1.77;;;;;;;-145.06;0.00;60892.56;4898751;28;20029;-89
2021/11/19 10:42:54;;;;;;;1.70;1.50;;;;;;;-145.06;0.00;60892.56;4912464;28;20036;-88
2021/11/19 10:45:49;;;;;;;1.75;1.65;;;;;;;-145.06;0.00;60892.56;4914699;28;20028;-87
2021/11/19 10:48:53;;;;;;;2.42;1.90;;;;;;;-145.06;0.00;60892.56;4911892;28;20059;-89
2021/11/19 10:51:44;;;;;;;2.17;1.70;;;;;;;-145.06;0.00;60892.56;4916744;28;20024;-88
2021/11/19 10:54:45;;;;;;;1.55;1.40;;;;;;;-145.06;0.00;60892.56;4916346;28;20032;-89
2021/11/19 10:57:45;;;;;;;2.03;1.63;;;;;;;-145.06;0.00;60892.56;4925603;28;20035;-88
2021/11/19 11:00:24;;;;;;;2.10;1.80;;;;;;;-145.06;0.00;60892.56;4909577;28;20450;-88
2021/11/19 11:03:14;;;;;;;1.70;1.23;;;;;;;-145.06;0.00;60892.56;4922947;28;20390;-88
2021/11/19 11:06:02;;;;;;;2.08;1.55;;;;;;;-145.06;0.00;60892.56;4911025;28;20032;-88
2021/11/19 11:08:45;;;;;;;1.95;1.33;;;;;;;-145.06;0.00;60892.56;4920694;28;20115;-87
2021/11/19 11:11:31;;;;;;;1.88;1.58;;;;;;;11.82;0.00;60892.56;4913438;28;20031;-88
2021/11/19 11:14:10;;;;;;;1.48;1.33;;;;;;;11.80;0.00;60892.56;4923967;28;20024;-87
2021/11/19 11:16:50;;;;;;;2.22;1.63;;;;;;;-145.06;0.00;60892.56;4909572;28;20367;-88
2021/11/19 11:19:30;;;;;;;2.53;2.00;;;;;;;-145.06;0.00;60892.56;4909129;28;20032;-88
2021/11/19 11:22:18;;;;;;;3.83;2.25;;;;;;;-145.06;0.00;60892.56;4899210;28;20037;-89
2021/11/19 11:25:12;;;;;;;2.30;2.00;;;;;;;-145.06;0.00;60892.56;4915745;28;20032;-88
2021/11/19 11:28:14;;;;;;;3.55;2.83;;;;;;;-145.06;0.00;60892.56;4917782;28;20029;-88
2021/11/19 11:30:58;;;;;;;3.10;2.50;;;;;;;-145.06;0.00;60892.56;4928149;28;20027;-89
2021/11/19 11:34:16;;;;;;;2.85;2.30;;;;;;;-145.06;0.00;60892.56;4917495;28;20024;-88
2021/11/19 11:37:08;;;;;;;3.72;2.47;;;;;;;-145.06;0.00;60892.56;4887111;28;20032;-88
2021/11/19 11:40:05;;;;;;;3.55;2.80;;;;;;;-145.06;0.00;60892.56;4933924;28;20473;-88
2021/11/19 11:42:52;;;;;;;3.35;2.65;;;;;;;-145.06;0.00;60892.56;4914478;28;20020;-87
2021/11/19 11:45:31;;;;;;;3.03;2.47;;;;;;;11.98;0.00;60892.56;4919189;28;20358;-89
2021/11/19 11:48:24;;;;;;;3.07;2.40;;;;;;;-145.06;0.00;60892.56;4926726;28;20032;-89
2021/11/19 11:51:28;;;;;;;3.47;2.92;;;;;;;12.06;0.00;60892.56;4927105;28;20032;-88
2021/11/19 11:54:26;;;;;;;3.40;2.50;;;;;;;-145.06;0.00;60892.56;4923254;28;20012;-88
2021/11/19 11:57:20;;;;;;;3.20;2.78;;;;;;;-145.06;0.00;60892.56;4928276;28;20024;-88
2021/11/19 12:00:20;;;;;;;3.03;2.22;;;;;;;-145.06;0.00;60892.56;4918429;28;20066;-89
2021/11/19 12:03:18;;;;;;;;;;;;;;;-145.06;0.00;60892.56;4905773;28;20032;-89
2021/11/19 12:06:05;;;;;;;3.08;2.72;;;;;;;-145.06;0.00;60892.56;4921719;28;19912;-88
2021/11/19 12:09:02;;;;;;;3.72;3.33;;;;;;;-145.06;0.00;60892.56;4901084;28;20028;-89
2021/11/19 12:12:24;;;;;;;3.90;3.03;;;;;;;-145.06;0.00;60892.56;4921035;28;20027;-89
2021/11/19 12:15:14;;;;;;;3.67;3.00;;;;;;;12.03;0.00;60892.56;4902684;28;20028;-88
2021/11/19 12:18:04;;;;;;;4.00;3.60;;;;;;;-145.06;0.00;60892.56;4921008;28;20099;-88
2021/11/19 12:21:08;;;;;;;3.78;2.80;;;;;;;-145.06;0.00;60892.56;4923947;28;20032;-89
2021/11/19 12:24:06;;;;;;;3.80;2.92;;;;;;;-145.06;0.00;60892.56;4910417;28;20024;-87
2021/11/19 12:26:45;;;;;;;3.83;3.40;;;;;;;-145.06;0.00;60892.56;4921424;28;20023;-88
2021/11/19 12:29:41;;;;;;;4.50;3.35;;;;;;;15.88;0.00;60892.56;4921575;28;20473;-89
2021/11/19 12:32:30;;;;;;;2.92;2.28;;;;;;;-145.06;0.00;60892.56;4911546;28;20024;-88
2021/11/19 12:35:37;;;;;;;3.42;2.85;;;;;;;-145.06;0.00;60892.56;4921103;28;20572;-89
2021/11/19 12:38:25;;;;;;;3.65;2.90;;;;;;;-145.06;0.00;60892.56;4900666;28;20481;-89
2021/11/19 12:41:25;;;;;;;3.35;2.90;;;;;;;-145.06;0.00;60892.56;4919781;28;20040;-89
2021/11/19 12:44:15;;;;;;;4.15;2.80;;;;;;;-145.06;0.00;60892.56;4923997;28;20032;-89
2021/11/19 12:46:58;;;;;;;3.92;2.97;;;;;;;-145.06;0.00;60892.56;4911371;28;20027;-88
2021/11/19 12:49:55;;;;;;;3.70;2.88;;;;;;;-145.06;0.00;60892.56;4918849;28;20027;-88